createdAt,value
2022-08-02T00:01:29.249Z,14.79
2022-08-02T00:06:30.957Z,14.75
2022-08-02T00:11:32.618Z,14.69
2022-08-02T00:16:38.397Z,14.62
2022-08-02T00:21:40.262Z,14.57
2022-08-02T00:26:41.901Z,14.52
2022-08-02T00:31:43.576Z,14.47
2022-08-02T00:36:45.432Z,14.41
2022-08-02T00:41:48.540Z,14.35
2022-08-02T00:46:50.264Z,14.33
2022-08-02T00:51:51.950Z,14.23
2022-08-02T00:56:54.696Z,14.16
2022-08-02T01:01:58.343Z,14.12
2022-08-02T01:07:00.916Z,14.06
2022-08-02T01:12:02.931Z,13.98
2022-08-02T01:17:31.610Z,13.99
2022-08-02T01:23:02.564Z,13.96
2022-08-02T01:28:29.647Z,13.94
2022-08-02T01:33:35.625Z,13.92
2022-08-02T01:38:43.388Z,13.84
2022-08-02T01:43:45.102Z,13.74
2022-08-02T01:48:46.876Z,13.67
2022-08-02T01:53:48.763Z,13.54
2022-08-02T01:58:50.467Z,13.52
2022-08-02T02:03:52.490Z,13.48
2022-08-02T02:08:54.180Z,13.44
2022-08-02T02:13:57.998Z,13.41
2022-08-02T02:19:01.427Z,13.37
2022-08-02T02:24:03.120Z,13.25
2022-08-02T02:29:05.316Z,13.16
2022-08-02T02:34:18.280Z,13.04
2022-08-02T02:39:21.251Z,12.96
2022-08-02T02:44:23.010Z,12.90
2022-08-02T02:49:24.900Z,12.82
2022-08-02T02:54:34.457Z,12.71
2022-08-02T02:59:43.016Z,12.66
2022-08-02T03:04:56.824Z,12.65
2022-08-02T03:09:59.751Z,12.58
2022-08-02T03:15:04.649Z,12.60
2022-08-02T03:20:16.933Z,12.55
2022-08-02T03:25:18.954Z,12.65
2022-08-02T03:30:24.547Z,12.61
2022-08-02T03:35:26.244Z,12.54
2022-08-02T03:40:27.943Z,12.51
2022-08-02T03:45:29.625Z,12.35
2022-08-02T03:50:31.727Z,12.31
2022-08-02T03:55:33.661Z,12.29
2022-08-02T04:00:35.413Z,12.25
2022-08-02T04:05:37.110Z,12.23
2022-08-02T04:11:17.620Z,12.19
2022-08-02T04:16:21.112Z,12.18
2022-08-02T04:21:24.724Z,12.19
2022-08-02T04:26:28.221Z,12.16
2022-08-02T04:31:30.203Z,12.15
2022-08-02T04:36:32.057Z,12.21
2022-08-02T04:41:57.184Z,12.24
2022-08-02T04:47:04.766Z,12.45
2022-08-02T04:52:08.354Z,12.51
2022-08-02T04:57:28.975Z,12.74
2022-08-02T05:02:30.663Z,12.89
2022-08-02T05:07:36.130Z,13.15
2022-08-02T05:12:39.053Z,13.41
2022-08-02T05:17:47.746Z,13.63
2022-08-02T05:22:50.237Z,13.86
2022-08-02T05:27:51.913Z,13.95
2022-08-02T05:32:53.653Z,13.92
2022-08-02T05:37:55.312Z,14.11
2022-08-02T05:42:57.304Z,14.21
2022-08-02T05:47:58.973Z,14.31
2022-08-02T05:53:12.060Z,14.38
2022-08-02T05:58:23.148Z,14.53
2022-08-02T06:03:38.111Z,14.58
2022-08-02T06:08:47.789Z,14.72
2022-08-02T06:13:49.837Z,14.83
2022-08-02T06:18:51.514Z,14.86
2022-08-02T06:23:58.722Z,15.05
2022-08-02T06:29:01.174Z,15.14
2022-08-02T06:34:02.884Z,15.23
2022-08-02T06:39:10.056Z,15.35
2022-08-02T06:44:45.043Z,15.47
2022-08-02T06:49:51.594Z,15.56
2022-08-02T06:54:56.818Z,15.67
2022-08-02T07:00:00.991Z,15.78
2022-08-02T07:05:03.795Z,15.87
2022-08-02T07:10:05.640Z,15.97
2022-08-02T07:15:07.912Z,16.09
2022-08-02T07:20:10.044Z,16.21
2022-08-02T07:25:11.870Z,16.34
2022-08-02T07:30:13.646Z,16.50
2022-08-02T07:35:19.308Z,16.65
2022-08-02T07:40:21.689Z,16.77
2022-08-02T07:45:23.896Z,16.89
2022-08-02T07:50:25.643Z,17.06
2022-08-02T07:55:39.303Z,17.23
2022-08-02T08:00:43.121Z,17.37
2022-08-02T08:05:44.797Z,17.47
2022-08-02T08:10:46.882Z,17.62
2022-08-02T08:15:51.734Z,17.77
2022-08-02T08:20:54.296Z,18.00
2022-08-02T08:25:56.194Z,18.21
2022-08-02T08:30:57.869Z,18.42
2022-08-02T08:35:59.569Z,18.57
2022-08-02T08:41:04.459Z,18.67
2022-08-02T08:46:06.272Z,18.81
2022-08-02T08:51:11.042Z,19.00
2022-08-02T08:56:15.928Z,19.20
2022-08-02T09:01:18.169Z,19.38
2022-08-02T09:06:20.480Z,19.60
2022-08-02T09:11:25.467Z,19.78
2022-08-02T09:16:36.879Z,19.99
2022-08-02T09:21:38.999Z,20.35
2022-08-02T09:26:40.677Z,20.82
2022-08-02T09:31:49.405Z,20.99
2022-08-02T09:36:54.758Z,21.03
2022-08-02T09:41:56.544Z,21.10
2022-08-02T09:46:58.215Z,21.30
2022-08-02T09:52:00.971Z,21.45
2022-08-02T09:57:02.630Z,21.50
2022-08-02T10:02:09.630Z,21.65
2022-08-02T10:07:18.885Z,21.56
2022-08-02T10:12:22.337Z,21.71
2022-08-02T10:17:24.817Z,21.56
2022-08-02T10:22:26.501Z,21.67
2022-08-02T10:27:38.913Z,21.94
2022-08-02T10:32:50.201Z,22.24
2022-08-02T10:37:54.596Z,22.33
2022-08-02T10:42:59.602Z,22.51
2022-08-02T10:48:14.468Z,22.98
2022-08-02T10:53:25.688Z,23.32
2022-08-02T10:58:29.888Z,23.48
2022-08-02T11:03:32.811Z,23.43
2022-08-02T11:08:41.147Z,23.63
2022-08-02T11:14:03.667Z,24.14
2022-08-02T11:19:06.803Z,24.99
2022-08-02T11:24:31.842Z,24.68
2022-08-02T11:29:38.679Z,25.17
2022-08-02T11:34:40.677Z,25.21
2022-08-02T11:39:50.166Z,25.43
2022-08-02T11:44:51.875Z,25.56
2022-08-02T11:50:03.534Z,25.74
2022-08-02T11:55:06.716Z,26.14
2022-08-02T12:00:17.017Z,26.29
2022-08-02T12:05:20.117Z,26.34
2022-08-02T12:10:23.111Z,27.08
2022-08-02T12:15:41.616Z,27.30
2022-08-02T12:20:43.275Z,27.46
2022-08-02T12:25:44.991Z,28.01
2022-08-02T12:30:51.562Z,28.19
2022-08-02T12:35:53.298Z,28.41
2022-08-02T12:40:54.985Z,28.45
2022-08-02T12:45:57.431Z,27.83
2022-08-02T12:50:59.153Z,27.84
2022-08-02T12:56:03.620Z,28.53
2022-08-02T13:01:05.628Z,28.98
2022-08-02T13:06:39.389Z,29.68
2022-08-02T13:11:29.247Z,29.11
2022-08-02T13:16:33.003Z,29.45
2022-08-02T13:21:41.143Z,29.00
2022-08-02T13:26:56.347Z,29.06
2022-08-02T13:31:58.027Z,28.45
2022-08-02T13:36:59.693Z,29.14
2022-08-02T13:42:01.503Z,29.39
2022-08-02T13:47:03.340Z,30.12
2022-08-02T13:52:05.335Z,30.22
2022-08-02T13:57:07.051Z,30.91
2022-08-02T14:02:08.801Z,31.46
2022-08-02T14:07:10.483Z,31.98
2022-08-02T14:12:13.194Z,32.64
2022-08-02T14:17:15.759Z,31.26
2022-08-02T14:22:17.414Z,30.70
2022-08-02T14:27:19.096Z,29.71
2022-08-02T14:32:20.761Z,29.38
2022-08-02T14:37:29.770Z,29.90
2022-08-02T14:42:31.513Z,30.12
2022-08-02T14:47:33.434Z,30.13
2022-08-02T14:52:38.062Z,29.25
2022-08-02T14:57:39.769Z,29.05
2022-08-02T15:02:41.507Z,29.08
2022-08-02T15:07:47.796Z,28.77
2022-08-02T15:12:51.156Z,29.01
2022-08-02T15:17:52.806Z,29.09
2022-08-02T15:22:54.561Z,29.34
2022-08-02T15:27:56.238Z,30.05
2022-08-02T15:32:57.914Z,30.37
2022-08-02T15:37:59.633Z,30.44
2022-08-02T15:43:01.368Z,30.48
2022-08-02T15:48:03.795Z,30.86
2022-08-02T15:53:05.535Z,30.78
2022-08-02T15:58:08.014Z,31.46
2022-08-02T16:03:18.904Z,31.47
2022-08-02T16:08:20.554Z,31.19
2022-08-02T16:13:49.923Z,31.35
2022-08-02T16:18:55.543Z,31.42
2022-08-02T16:24:02.699Z,30.97
2022-08-02T16:29:05.173Z,31.39
2022-08-02T16:34:06.904Z,31.19
2022-08-02T16:39:08.563Z,31.24
2022-08-02T16:44:10.753Z,31.10
2022-08-02T16:49:56.654Z,31.09
2022-08-02T16:54:34.331Z,31.37
2022-08-02T16:59:41.887Z,31.11
2022-08-02T17:04:45.053Z,30.91
2022-08-02T17:10:01.957Z,30.94
2022-08-02T17:16:07.972Z,31.18
2022-08-02T17:20:29.509Z,30.38
2022-08-02T17:25:32.182Z,29.97
2022-08-02T17:30:34.235Z,29.80
2022-08-02T17:35:43.823Z,30.02
2022-08-02T17:40:55.215Z,29.88
2022-08-02T17:46:00.560Z,29.82
2022-08-02T17:51:04.017Z,29.47
2022-08-02T17:56:05.706Z,29.32
2022-08-02T18:01:24.261Z,29.22
2022-08-02T18:06:26.255Z,29.08
2022-08-02T18:11:52.666Z,29.14
2022-08-02T18:16:50.437Z,29.03
2022-08-02T18:21:52.088Z,28.82
2022-08-02T18:26:56.689Z,28.63
2022-08-02T18:31:58.453Z,28.39
2022-08-02T18:37:00.211Z,28.17
2022-08-02T18:42:02.108Z,27.96
2022-08-02T18:47:03.806Z,27.78
2022-08-02T18:52:05.745Z,27.62
2022-08-02T18:58:17.199Z,27.47
2022-08-02T19:02:31.154Z,27.30
2022-08-02T19:07:49.793Z,27.14
2022-08-02T19:12:53.421Z,26.90
2022-08-02T19:17:58.042Z,26.69
2022-08-02T19:22:59.843Z,26.50
2022-08-02T19:28:03.351Z,26.32
2022-08-02T19:33:09.255Z,26.18
2022-08-02T19:38:11.473Z,26.03
2022-08-02T19:44:23.039Z,25.88
2022-08-02T19:48:35.085Z,25.70
2022-08-02T19:53:46.687Z,25.54
2022-08-02T19:58:51.363Z,25.36
2022-08-02T20:03:53.690Z,25.22
2022-08-02T20:14:17.022Z,24.91
2022-08-02T20:19:18.674Z,24.75
2022-08-02T20:24:26.566Z,24.62
2022-08-02T20:29:43.773Z,24.48
2022-08-02T20:35:36.256Z,24.38
2022-08-02T20:40:38.000Z,24.29
2022-08-02T20:45:39.695Z,24.20
2022-08-02T20:50:49.319Z,24.14
2022-08-02T20:55:52.346Z,24.08
2022-08-02T21:00:56.625Z,24.00
2022-08-02T21:05:58.764Z,23.94
2022-08-02T21:11:01.346Z,23.85
2022-08-02T21:16:15.013Z,23.78
2022-08-02T21:21:20.108Z,23.72
2022-08-02T21:26:27.851Z,23.65
2022-08-02T21:31:33.418Z,23.59
2022-08-02T21:36:37.621Z,23.54
2022-08-02T21:41:46.811Z,23.48
2022-08-02T21:46:50.485Z,23.40
2022-08-02T21:51:52.451Z,23.34
2022-08-02T21:56:54.186Z,23.27
2022-08-02T22:01:56.924Z,23.22
2022-08-02T22:06:59.014Z,23.15
2022-08-02T22:12:00.659Z,23.11
2022-08-02T22:17:05.317Z,23.05
2022-08-02T22:22:10.563Z,23.02
2022-08-02T22:27:12.211Z,22.97
2022-08-02T22:32:35.406Z,22.92
2022-08-02T22:43:00.919Z,22.85
2022-08-02T22:48:03.679Z,22.85
2022-08-02T22:53:05.480Z,22.83
2022-08-02T22:58:07.130Z,22.79
2022-08-02T22:58:54.654Z,25.10
2022-08-02T23:03:08.856Z,22.75
2022-08-02T23:08:10.558Z,22.73
2022-08-02T23:13:12.258Z,22.69
2022-08-02T23:18:32.424Z,22.63
2022-08-02T23:23:34.132Z,22.57
2022-08-02T23:28:35.912Z,22.50
2022-08-02T23:33:37.616Z,22.41
2022-08-02T23:39:02.138Z,22.30
2022-08-02T23:44:13.976Z,22.23
2022-08-02T23:49:16.580Z,22.13
2022-08-02T23:54:18.357Z,22.07
2022-08-02T23:59:20.027Z,22.01
